Extreme weather reports worldwide

Lowest temperatures

Station
 
Location
 
Name
 
Wind
Knots
Gust
Knots
Vis
SM
Temp/Dew
C
Baro
inHg
METAR
 
CXSE 0 -40/-44 CXSE 261600Z AUTO 00000KT M40/M44 RMK AO1 SOG 22 1003 SLP167 T14001444
YCB CYCB Cambridge Bay, CA Cambridge Bay Airport 12 15 -36/-39 30.08 CYCB 261600Z 31012KT 15SM SKC M36/M39 A3008 RMK FROIN SLP193
CWEU 2 15 -36/-40 29.95 CWEU 261600Z 13002KT 15SM IC FEW180 M36/M40 A2995 RMK AC1 BLDG EXHAUST W VIS 5 SM SLP162
WTK PAWN Noatak, US Noatak Airport 5 10 -36/ 30.56 PAWN 261556Z AUTO 35005KT 10SM CLR M37/ A3056 RMK AO2 SLP367 T1367 FZRANO
KVL PAVL Kivalina, US Kivalina Airport 6 10 -36/ 30.53 PAVL 261553Z AUTO 06006KT 10SM CLR M36/ A3053 RMK AO2 SLP339 T1361 TSNO

Station
 
Location
 
Name
 
Wind
Knots
Gust
Knots
Vis
SM
Temp/Dew
C
Baro
inHg
METAR
 
ABL PAFM Ambler, US Ambler Airport 0 10 -35/ 30.52 PAFM 261628Z AUTO 00000KT 10SM FEW007 M35/ A3052 RMK AO2 FZRANO
ORV PFNO Noorvik, US Robert (Bob) Curtis Memorial Airport 3 9 -35/ 30.55 PFNO 261556Z AUTO 21003KT 9SM CLR M36/ A3055 RMK AO2 SLP437 T1356 FZRANO
DRG PADE Deering, US Deering Airport 7 10 -35/ 30.53 PADE 261553Z AUTO 21007KT 10SM CLR M35/ A3053 RMK AO2 SLP341 T1350 TSNO
YXR CYXR Earlton, CA Earlton (Timiskaming Regional) Airport 6 9 -34/-38 30.33 CYXR 261600Z AUTO 14006KT 9SM CLR M34/M38 A3033 RMK ICE SLP313
YKG CYAS Kangirsuk, CA Kangirsuk Airport 4 15 -34/-38 29.65 CYAS 261600Z 28004KT 15SM FEW060 SCT080 M34/M38 A2965 RMK SC1AC3 SLP067
YZG CYZG Salluit, CA Salluit Airport 10 22 12 -33/-37 29.41 CYZG 261600Z 23010G22KT 180V270 12SM DRSN FEW048 SCT120 M33/M37 A2941 RMK SC1AS3 SLP002
CPIN 7 -33/-36 30.04 CPIN 261600Z AUTO 13007KT ////SM NCD M33/M36 A3004
SHH PASH Shishmaref, US Shishmaref Airport 0 10 -33/-36 30.57 PASH 261556Z AUTO 00000KT 10SM CLR M34/M37 A3057 RMK AO2 SLP354 T13391367 FZRANO
IAN PAIK Kiana, US Bob Baker Memorial Airport 5 10 -33/-37 30.54 PAIK 261556Z AUTO 33005KT 10SM CLR M34/M37 A3054 RMK AO2 SLP350 T13391372 FZRANO
RDB PADG Red Dog, US Red Dog Airport 5 7 -32/-33 30.40 PADG 261610Z 04005KT 7SM SKC M32/M33 A3040
YHK CYHK Gjoa Haven, CA Gjoa Haven Airport 16 15 -32/-35 29.88 CYHK 261600Z 34016KT 15SM FEW025 M32/M35 A2988 RMK SC1 SLP130
WLK PASK Selawik, US Selawik Airport 9 9 -32/-35 30.55 PASK 261556Z AUTO 25009KT 9SM CLR M33/M36 A3055 RMK AO2 SLP341 T13281356 FZRANO
BKC PABL Buckland, US Buckland Airport 3 3 -32/-35 30.56 PABL 261556Z AUTO 31003KT 3SM -SN CLR M33/M36 A3056 RMK AO2 SNB02 SLP352 P0000 T13281356 FZRANO
OTZ PAOT Kotzebue, US Ralph Wien Memorial Airport 3 10 -32/-33 30.54 PAOT 261553Z AUTO 24003KT 10SM CLR M32/M34 A3054 RMK AO2 SLP342 T13221339 TSNO $
ULN ZMUB Ulan Bator, MN Buyant-Ukhaa International Airport 2 6.21 -31/-35 30.27 ZMUB 261600Z VRB01MPS CAVOK M31/M35 Q1025 NOSIG RMK QFE661.0 66
YUX CYUX Hall Beach, CA Hall Beach Airport 10 10 -31/-34 29.68 CYUX 261600Z 33010KT 10SM SCT019 M31/M34 A2968 RMK SC3 SLP055
CYUS 9 -31/-35 29.82 CYUS 261600Z AUTO 34009KT ////SM //// OVC010 M31/M35 A2982
YLT CYLT Alert, CA Alert Airport 0 15 -31/-36 29.92 CYLT 261600Z 00000KT 15SM FEW030 M31/M36 A2992 RMK SC1 SLP137
YIO CYIO Pond Inlet, CA Pond Inlet Airport 3 25 -31/-34 29.79 CYIO 261600Z 19003KT 160V230 25SM FEW250 M31/M34 A2979 RMK CI1 CI TR SNW CVR/MEDIUM PACK SLP101
YQC CYHA Quaqtaq, CA Quaqtaq Airport 16 3 -31/-35 29.65 CYHA 261600Z 18016KT 3SM IC DRSN OVC029 M31/M35 A2965 RMK SC8 SLP047
CXRB 0 -31/-34 CXRB 261600Z AUTO 00000KT M32/M35 RMK AO1 1PAST HR SOG 02 5001 SLP141 P0000 T13161349 50001
CWIJ 0 -31/-34 CWIJ 261600Z AUTO 00000KT M32/M35 RMK AO1 SOG 41 3040 SLP184 T13161346
GLV PAGL Golovin, US Golovin Airport 8 10 -31/-34 30.52 PAGL 261556Z AUTO 31008KT 10SM CLR M32/M34 A3052 RMK AO2 SLP330 T13171344 PWINO FZRANO $
YKS UEEE Yakutsk, RU Yakutsk Airport 6 3.11 -30/-33 30.21 UEEE 261630Z 02003MPS 5000 -SN NSC M30/M33 Q1023 R23L/490135 NOSIG RMK QFE759
YKL CYKL Schefferville, CA Schefferville Airport 9 15 6 -30/-34 29.82 CYKL 261626Z AUTO 25009G15KT 210V270 6SM HZ CLR M30/M34 A2982 RMK SLP176
ATK PATQ Atqasuk, US Atqasuk Edward Burnell Sr Memorial Airport 17 2 -30/-33 30.37 PATQ 261618Z AUTO 25017KT 2SM HZ CLR M30/M33 A3037 RMK AO2 FZRANO TSNO
YYH CYYH Taloyoak, CA Taloyoak Airport 6 15 -30/-33 29.85 CYYH 261600Z 33006KT 15SM IC FEW015 M30/M33 A2985 RMK SC1 SLP116
YWK CYWK Wabush, CA Wabush Airport 7 15 -30/-34 29.94 CYWK 261600Z 21007KT 15SM IC FEW010 M30/M34 A2994 RMK SF1 SLP218
YTE CYTE Cape Dorset, CA Cape Dorset Airport 4 15 -30/-33 29.53 CYTE 261600Z 13004KT 15SM IC FEW014 SCT260 M30/M33 A2953 RMK SC1CI3 SC TR SLP011
YCO CYCO Kugluktuk, CA Kugluktuk Airport 3 15 -30/-34 30.04 CYCO 261600Z 29003KT 15SM IC FEW090 BKN120 BKN220 M30/M34 A3004 RMK AC2AC3CI2 SLP178
CXAT -30/-34 CXAT 261600Z AUTO M31/M35 RMK AO1 SOG 03 0003 SLP105 T13081347
CWEE -30/-33 CWEE 261600Z AUTO M30/M34 RMK AO1 SLP301 T13021335 50002
BTT PABT Bettles, US Bettles Airport 3 10 -30/-32 30.31 PABT 261553Z 03003KT 10SM FEW060 M30/M33 A3031 RMK AO2 SLP291 T13001328 $
NZSP AQ South Pole Station Airport 4 6.21 -30/ 28.71 NZSP 261550Z 03004KT 9999 -SG FEW029 OVC040 M30/ A2871 RMK CLN AIR 04003KT ALL WNDS GRID SDG/HDF
YBK CYBK Baker Lake, CA Baker Lake Airport 22 2 -29/-33 29.68 CYBK 261631Z 35022KT 2SM -SN DRSN VCBLSN BKN017 OVC066 M29/M33 A2968 RMK SC5AC3 SLP057
HTA UIAA Chita, RU Chita-Kadala Airport 2 5.59 -29/-32 30.32 UIAA 261630Z AUTO 30001MPS 9000 NCD M29/M32 Q1027 RMK QFE712/0949
YPJ CYLA Aupaluk, CA Aupaluk Airport 15 15 -29/-33 29.75 CYLA 261620Z 21015KT 15SM DRSN FEW022 SCT055 BKN230 M29/M33 A2975 RMK SC2SC2CI2 SLP084
YZS CYZS Coral Harbour, CA Coral Harbour Airport 18 6 -29/-32 29.48 CYZS 261600Z 06018KT 6SM IC DRSN FEW210 M29/M32 A2948 RMK CI1 SLP994
YRB CYRB Resolute Bay, CA Resolute Bay Airport 0 20 -29/-33 29.92 CYRB 261600Z 00000KT 20SM SKC M29/M33 A2992 RMK SLP145
XGR CYLU Kangiqsualujjuaq, CA Kangiqsualujjuaq (Georges River) Airport 20 29 15 -29/-35 29.89 CYLU 261600Z 15020G29KT 15SM DRSN FEW015 FEW050 FEW080 M29/M35 A2989 RMK ST1SC1AC1 ST TR SC TR SLP136
YWB CYKG Kangiqsujuaq, CA Kangiqsujuaq (Wakeham Bay) Airport 4 12 -29/-35 29.50 CYKG 261600Z 25004KT 210V290 12SM -SN BKN042 OVC250 M29/M35 A2950 RMK SC6CI2 SLP017
YIK CYIK Ivujivik, CA Ivujivik Airport 13 15 -29/-33 29.47 CYIK 261600Z 11013KT 15SM DRSN FEW020 FEW100 SCT200 M29/M33 A2947 RMK SF1AC1CS2 SLP989
CWJC Ennadai, CA Ennadai Lake Airport 20 25 -29/-31 CWJC 261600Z AUTO 36020G25KT M29/M32 RMK AO1 PRESRR SOG 01 3050 PK WND 35033/1500 SLP041 T12941315
CWFD -29/-32 CWFD 261600Z AUTO ///// ////SM BKN002 BKN007 M29/M32 A////
UBN ZMCK Ulaanbaatar, MN Ulaanbaatar International Airport 8 6.21 -28/-31 30.24 ZMCK 261630Z 08004MPS CAVOK M28/M31 Q1024 NOSIG RMK QFE652.0 75